Time;durP1;ratioP1;P1;durP2;ratioP2;P2;SDS_P1;SDS_P2;PMS_P1;PMS_P2;Temp;Humidity;BMP_temperature;BMP_pressure;BME280_temperature;BME280_humidity;BME280_pressure;Samples;Min_cycle;Max_cycle;Signal;HPM_P1;HPM_P2
2023/07/22 00:00:22;;;;;;;;;;;15.90;68.80;;;;;;5033785;28;19932;-72
2023/07/22 00:02:48;;;;;;;;;;;15.90;69.10;;;;;;5034037;28;19921;-72
2023/07/22 00:05:13;;;;;;;;;;;15.80;69.00;;;;;;5033906;28;19909;-73
2023/07/22 00:07:40;;;;;;;;;;;15.80;68.90;;;;;;5034053;28;19917;-72
2023/07/22 00:10:06;;;;;;;;;;;15.80;68.90;;;;;;5034003;28;19913;-72
2023/07/22 00:12:33;;;;;;;;;;;15.70;68.70;;;;;;5034168;28;20024;-72
2023/07/22 00:14:59;;;;;;;;;;;15.70;68.80;;;;;;5033991;28;19956;-72
2023/07/22 00:17:24;;;;;;;;;;;15.70;69.20;;;;;;5033833;28;20400;-72
2023/07/22 00:19:50;;;;;;;;;;;15.70;69.60;;;;;;5033774;28;19963;-73
2023/07/22 00:22:15;;;;;;;;;;;15.80;69.90;;;;;;5033846;28;20020;-72
2023/07/22 00:24:41;;;;;;;;;;;15.70;69.70;;;;;;5033546;28;19909;-71
2023/07/22 00:27:08;;;;;;;;;;;15.80;69.70;;;;;;5033715;28;20277;-72
2023/07/22 00:29:34;;;;;;;;;;;15.80;69.70;;;;;;5033778;28;20415;-72
2023/07/22 00:31:59;;;;;;;;;;;15.80;70.00;;;;;;5033515;28;19917;-71
2023/07/22 00:34:25;;;;;;;;;;;15.80;70.30;;;;;;5013848;28;19913;-71
2023/07/22 00:36:50;;;;;;;;;;;16.00;70.90;;;;;;5013521;28;19944;-71
2023/07/22 00:39:16;;;;;;;;;;;16.10;71.30;;;;;;5013583;28;19948;-72
2023/07/22 00:41:44;;;;;;;;;;;16.20;71.40;;;;;;5013103;28;20356;-72
2023/07/22 00:44:10;;;;;;;;;;;16.30;71.30;;;;;;5013516;28;19917;-72
2023/07/22 00:46:36;;;;;;;;;;;16.30;71.30;;;;;;5013531;28;19909;-72
2023/07/22 00:49:02;;;;;;;;;;;16.40;71.20;;;;;;5013333;28;20047;-72
2023/07/22 00:51:27;;;;;;;;;;;16.50;71.10;;;;;;5013459;28;20289;-72
2023/07/22 00:53:53;;;;;;;;;;;16.50;71.00;;;;;;5013078;28;19944;-73
2023/07/22 00:56:19;;;;;;;;;;;16.50;71.10;;;;;;5013307;28;20004;-73
2023/07/22 00:58:44;;;;;;;;;;;16.60;71.10;;;;;;5013565;28;19944;-72
2023/07/22 01:01:10;;;;;;;;;;;16.70;71.20;;;;;;5013802;28;20320;-71
2023/07/22 01:03:35;;;;;;;;;;;16.70;71.00;;;;;;5013507;28;19917;-72
2023/07/22 01:06:01;;;;;;;;;;;16.70;70.90;;;;;;5013071;28;19955;-72
2023/07/22 01:08:26;;;;;;;;;;;16.70;70.90;;;;;;5012808;28;19924;-72
2023/07/22 01:10:52;;;;;;;;;;;16.80;70.90;;;;;;5032646;28;19931;-72
2023/07/22 01:13:17;;;;;;;;;;;16.80;70.70;;;;;;5032948;28;20365;-72
2023/07/22 01:15:43;;;;;;;;;;;16.80;70.40;;;;;;5032836;28;20406;-72
2023/07/22 01:18:08;;;;;;;;;;;16.70;70.20;;;;;;5032967;28;19971;-72
2023/07/22 01:20:34;;;;;;;;;;;16.60;69.90;;;;;;5032951;28;19909;-72
2023/07/22 01:23:00;;;;;;;;;;;16.60;69.60;;;;;;5032339;28;19976;-72
2023/07/22 01:25:26;;;;;;;;;;;16.50;69.80;;;;;;5032506;28;19979;-72
2023/07/22 01:27:51;;;;;;;;;;;16.40;69.40;;;;;;5032618;28;20004;-72
2023/07/22 01:30:17;;;;;;;;;;;16.30;69.00;;;;;;5032658;28;20288;-72
2023/07/22 01:32:42;;;;;;;;;;;16.30;68.90;;;;;;5032413;28;19975;-72
2023/07/22 01:35:08;;;;;;;;;;;16.20;68.90;;;;;;5032421;28;20761;-72
2023/07/22 01:37:34;;;;;;;;;;;16.20;69.10;;;;;;5032570;28;19925;-72
2023/07/22 01:39:59;;;;;;;;;;;16.20;69.50;;;;;;5032254;28;19936;-72
2023/07/22 01:42:25;;;;;;;;;;;16.20;69.80;;;;;;5032503;28;20020;-72
2023/07/22 01:44:50;;;;;;;;;;;16.20;69.90;;;;;;5032238;28;19913;-73
2023/07/22 01:47:16;;;;;;;;;;;16.20;70.00;;;;;;5032446;28;19928;-72
2023/07/22 01:49:41;;;;;;;;;;;16.20;70.00;;;;;;5032122;28;19913;-72
2023/07/22 01:52:07;;;;;;;;;;;16.20;70.20;;;;;;5031864;28;19990;-72
2023/07/22 01:54:32;;;;;;;;;;;16.20;70.40;;;;;;5031664;28;19938;-72
2023/07/22 01:56:58;;;;;;;;;;;16.20;70.40;;;;;;5031958;28;20365;-73
2023/07/22 01:59:24;;;;;;;;;;;16.30;70.50;;;;;;5031965;28;19917;-73
2023/07/22 02:01:49;;;;;;;;;;;16.30;70.60;;;;;;5032148;28;19913;-72
2023/07/22 02:04:15;;;;;;;;;;;16.30;70.70;;;;;;5031843;28;19936;-73
2023/07/22 02:06:40;;;;;;;;;;;16.40;70.80;;;;;;5028864;28;20020;-72
2023/07/22 02:09:08;;;;;;;;;;;16.40;70.90;;;;;;5012088;28;19924;-73
2023/07/22 02:11:36;;;;;;;;;;;16.50;70.90;;;;;;5012255;28;19913;-72
2023/07/22 02:14:03;;;;;;;;;;;16.50;71.00;;;;;;5011937;28;19921;-72
2023/07/22 02:16:29;;;;;;;;;;;16.50;70.90;;;;;;5012094;28;19936;-72
2023/07/22 02:18:54;;;;;;;;;;;16.60;70.90;;;;;;5012544;28;19914;-72
2023/07/22 02:21:20;;;;;;;;;;;16.70;70.90;;;;;;5012004;28;19917;-72
2023/07/22 02:23:45;;;;;;;;;;;16.60;70.70;;;;;;5012296;28;19961;-72
2023/07/22 02:26:11;;;;;;;;;;;16.60;70.60;;;;;;4994466;28;19913;-72
2023/07/22 02:28:37;;;;;;;;;;;16.70;70.50;;;;;;5012363;28;19917;-72
2023/07/22 02:31:06;;;;;;;;;;;16.70;70.50;;;;;;5011947;28;19976;-72
2023/07/22 02:33:32;;;;;;;;;;;16.70;70.60;;;;;;5024396;28;19913;-72
2023/07/22 02:35:57;;;;;;;;;;;16.70;70.60;;;;;;5031816;28;20011;-72
2023/07/22 02:38:23;;;;;;;;;;;16.70;70.70;;;;;;5030515;28;19914;-72
2023/07/22 02:40:48;;;;;;;;;;;16.70;70.60;;;;;;5031107;28;19948;-72
2023/07/22 02:43:15;;;;;;;;;;;16.70;70.50;;;;;;5031585;28;20041;-73
2023/07/22 02:45:40;;;;;;;;;;;16.70;70.40;;;;;;5031501;28;19917;-72
2023/07/22 02:48:06;;;;;;;;;;;16.70;70.30;;;;;;5031614;28;20269;-71
2023/07/22 02:50:31;;;;;;;;;;;16.60;70.20;;;;;;5031740;28;19913;-72
2023/07/22 02:52:57;;;;;;;;;;;16.60;69.90;;;;;;5031389;28;19925;-72
2023/07/22 02:55:23;;;;;;;;;;;16.50;69.80;;;;;;5031415;28;19967;-72
2023/07/22 02:57:48;;;;;;;;;;;16.40;69.50;;;;;;5031242;28;19963;-72
2023/07/22 03:00:23;;;;;;;;;;;16.40;69.20;;;;;;5031382;28;20319;-72
2023/07/22 03:02:52;;;;;;;;;;;16.30;69.10;;;;;;5031470;28;19917;-72
2023/07/22 03:05:18;;;;;;;;;;;16.20;68.90;;;;;;5013436;28;19916;-72
2023/07/22 03:07:44;;;;;;;;;;;16.20;68.80;;;;;;5015574;28;20373;-72
2023/07/22 03:10:09;;;;;;;;;;;16.10;68.70;;;;;;5015202;28;19914;-72
2023/07/22 03:12:35;;;;;;;;;;;16.10;68.70;;;;;;5015729;28;19917;-72
2023/07/22 03:15:01;;;;;;;;;;;16.00;68.60;;;;;;5015013;28;20334;-71
2023/07/22 03:17:26;;;;;;;;;;;16.00;68.50;;;;;;5015293;28;19941;-72
2023/07/22 03:19:52;;;;;;;;;;;15.90;68.70;;;;;;5015124;28;19909;-72
2023/07/22 03:22:17;;;;;;;;;;;15.90;69.00;;;;;;5015085;28;19917;-72
2023/07/22 03:24:43;;;;;;;;;;;15.90;69.10;;;;;;4997304;28;19910;-72
2023/07/22 03:27:08;;;;;;;;;;;15.90;69.20;;;;;;5015184;28;19917;-71
2023/07/22 03:29:34;;;;;;;;;;;15.90;69.50;;;;;;5014948;28;19909;-72
2023/07/22 03:31:59;;;;;;;;;;;15.90;69.90;;;;;;5014894;28;19918;-72
2023/07/22 03:34:26;;;;;;;;;;;16.00;70.20;;;;;;5034100;28;20412;-71
2023/07/22 03:36:52;;;;;;;;;;;16.10;70.50;;;;;;5034573;28;20336;-72
2023/07/22 03:39:17;;;;;;;;;;;16.20;70.70;;;;;;5034469;28;19909;-72
2023/07/22 03:41:42;;;;;;;;;;;16.20;70.80;;;;;;5034743;28;19909;-72
2023/07/22 03:44:08;;;;;;;;;;;16.30;71.00;;;;;;5034379;28;20312;-72
2023/07/22 03:46:33;;;;;;;;;;;16.40;71.10;;;;;;5034345;28;19931;-72
2023/07/22 03:48:59;;;;;;;;;;;16.50;71.20;;;;;;5034496;28;20028;-72
2023/07/22 03:51:24;;;;;;;;;;;16.60;71.30;;;;;;5034329;28;19952;-72
2023/07/22 03:53:49;;;;;;;;;;;16.70;71.40;;;;;;5034139;28;19948;-72
2023/07/22 03:56:15;;;;;;;;;;;16.80;71.40;;;;;;5016546;28;20293;-72
2023/07/22 03:58:40;;;;;;;;;;;16.90;71.30;;;;;;5034560;28;20292;-72
2023/07/22 04:01:06;;;;;;;;;;;17.00;71.20;;;;;;5033477;28;19939;-72
2023/07/22 04:03:31;;;;;;;;;;;17.00;71.10;;;;;;5034525;28;19983;-72
2023/07/22 04:05:57;;;;;;;;;;;17.10;71.10;;;;;;5032725;28;19967;-72
2023/07/22 04:08:23;;;;;;;;;;;17.10;71.00;;;;;;5017295;28;19917;-72
2023/07/22 04:10:55;;;;;;;;;;;17.20;71.10;;;;;;5014425;28;19909;-72
2023/07/22 04:13:20;;;;;;;;;;;17.30;71.20;;;;;;5014626;28;19921;-72
2023/07/22 04:15:49;;;;;;;;;;;17.30;71.30;;;;;;5013291;28;19914;-72
2023/07/22 04:18:15;;;;;;;;;;;17.40;71.30;;;;;;5014355;28;20361;-72
2023/07/22 04:20:41;;;;;;;;;;;17.50;71.30;;;;;;5014062;28;19909;-72
2023/07/22 04:23:06;;;;;;;;;;;17.50;71.30;;;;;;5014020;28;19925;-72
2023/07/22 04:25:32;;;;;;;;;;;17.60;71.30;;;;;;5013990;28;19909;-72
2023/07/22 04:27:57;;;;;;;;;;;17.60;71.20;;;;;;5014075;28;20389;-72
2023/07/22 04:30:24;;;;;;;;;;;17.70;71.10;;;;;;5014048;28;19916;-72
2023/07/22 04:32:50;;;;;;;;;;;17.70;71.20;;;;;;5020323;28;19918;-72
2023/07/22 04:35:18;;;;;;;;;;;17.80;71.20;;;;;;5033433;28;19921;-73
2023/07/22 04:37:44;;;;;;;;;;;17.80;71.20;;;;;;5033702;28;20349;-72
2023/07/22 04:40:16;;;;;;;;;;;17.80;71.20;;;;;;5033358;28;19924;-72
2023/07/22 04:42:42;;;;;;;;;;;17.90;71.20;;;;;;5033415;28;19913;-73
2023/07/22 04:45:09;;;;;;;;;;;17.90;70.90;;;;;;5033195;28;19913;-74
2023/07/22 04:47:35;;;;;;;;;;;17.80;71.00;;;;;;5033296;28;19996;-73
2023/07/22 04:50:00;;;;;;;;;;;17.80;70.90;;;;;;5033147;28;19982;-72
2023/07/22 04:52:26;;;;;;;;;;;17.80;70.90;;;;;;5033248;28;20443;-73
2023/07/22 04:54:53;;;;;;;;;;;17.80;71.10;;;;;;5032958;28;19913;-74
2023/07/22 04:57:19;;;;;;;;;;;17.80;71.10;;;;;;5031643;28;19925;-73
2023/07/22 04:59:44;;;;;;;;;;;17.80;71.20;;;;;;5032888;28;19909;-73
2023/07/22 05:02:09;;;;;;;;;;;17.80;71.10;;;;;;5030162;28;19926;-73
2023/07/22 05:04:35;;;;;;;;;;;17.80;71.20;;;;;;5013197;28;19909;-72
2023/07/22 05:07:00;;;;;;;;;;;17.90;71.30;;;;;;5022224;28;19917;-72
2023/07/22 05:09:26;;;;;;;;;;;17.90;71.40;;;;;;5015490;28;19916;-73
2023/07/22 05:11:51;;;;;;;;;;;17.90;71.40;;;;;;5032764;28;19909;-72
2023/07/22 05:14:17;;;;;;;;;;;18.00;71.50;;;;;;5013145;28;20404;-73
2023/07/22 05:16:42;;;;;;;;;;;18.00;71.40;;;;;;5012817;28;20358;-73
2023/07/22 05:19:08;;;;;;;;;;;18.10;71.30;;;;;;5012776;28;19909;-73
2023/07/22 05:21:33;;;;;;;;;;;18.00;70.90;;;;;;5013088;28;19909;-73
2023/07/22 05:23:59;;;;;;;;;;;17.90;71.00;;;;;;5013128;28;19924;-74
2023/07/22 05:26:24;;;;;;;;;;;17.90;71.20;;;;;;5031642;28;19909;-73
2023/07/22 05:28:50;;;;;;;;;;;17.90;71.10;;;;;;5032218;28;19921;-74
2023/07/22 05:31:16;;;;;;;;;;;17.90;71.30;;;;;;5032373;28;19909;-74
2023/07/22 05:33:41;;;;;;;;;;;18.00;71.30;;;;;;5019170;28;19956;-74
2023/07/22 05:36:07;;;;;;;;;;;18.00;71.40;;;;;;5012494;28;19957;-74
2023/07/22 05:38:32;;;;;;;;;;;18.10;71.40;;;;;;5013174;28;19917;-75
2023/07/22 05:40:58;;;;;;;;;;;18.30;71.40;;;;;;5012636;28;20289;-73
2023/07/22 05:43:23;;;;;;;;;;;18.30;71.80;;;;;;5012705;28;19918;-73
2023/07/22 05:45:49;;;;;;;;;;;18.50;71.80;;;;;;5012393;28;19916;-73
2023/07/22 05:48:14;;;;;;;;;;;18.60;72.00;;;;;;5012522;28;19918;-73
2023/07/22 05:50:40;;;;;;;;;;;18.70;72.00;;;;;;5012377;28;20297;-73
2023/07/22 05:53:05;;;;;;;;;;;18.90;72.10;;;;;;5012332;28;20289;-72
2023/07/22 05:55:30;;;;;;;;;;;19.10;72.30;;;;;;5012246;28;19968;-72
2023/07/22 05:57:59;;;;;;;;;;;19.30;72.20;;;;;;5011779;28;22269;-72
2023/07/22 06:00:24;;;;;;;;;;;19.40;72.20;;;;;;5012200;28;19999;-72
2023/07/22 06:02:50;;;;;;;;;;;19.50;71.20;;;;;;5030492;28;20360;-72
2023/07/22 06:05:15;;;;;;;;;;;19.50;71.20;;;;;;5031954;28;19916;-73
2023/07/22 06:07:41;;;;;;;;;;;19.60;71.40;;;;;;5032282;28;19914;-73
2023/07/22 06:10:06;;;;;;;;;;;19.70;71.20;;;;;;5032001;28;19913;-72
2023/07/22 06:12:32;;;;;;;;;;;19.80;71.10;;;;;;5032005;28;20159;-73
2023/07/22 06:14:57;;;;;;;;;;;19.80;71.10;;;;;;5031552;28;19921;-73
2023/07/22 06:17:23;;;;;;;;;;;19.90;71.20;;;;;;5031744;28;19918;-72
2023/07/22 06:19:48;;;;;;;;;;;20.00;71.20;;;;;;5031741;28;19913;-72
2023/07/22 06:22:14;;;;;;;;;;;20.00;71.20;;;;;;5031949;28;19962;-71
2023/07/22 06:24:40;;;;;;;;;;;20.00;70.70;;;;;;5031966;28;20384;-71
2023/07/22 06:27:05;;;;;;;;;;;20.10;71.30;;;;;;5031642;28;19917;-71
2023/07/22 06:29:31;;;;;;;;;;;20.30;72.00;;;;;;5031619;28;19919;-72
2023/07/22 06:31:56;;;;;;;;;;;20.60;71.80;;;;;;5031705;28;20320;-71
2023/07/22 06:34:22;;;;;;;;;;;20.80;71.70;;;;;;5031446;28;20012;-71
2023/07/22 06:36:47;;;;;;;;;;;21.20;72.00;;;;;;5031257;28;19913;-70
2023/07/22 06:39:13;;;;;;;;;;;21.60;71.90;;;;;;5029029;28;19913;-70
2023/07/22 06:41:38;;;;;;;;;;;21.80;71.30;;;;;;5035029;28;20802;-70
2023/07/22 06:44:04;;;;;;;;;;;22.10;71.90;;;;;;5034896;28;19913;-69
2023/07/22 06:46:29;;;;;;;;;;;22.60;72.80;;;;;;5035268;28;20007;-70
2023/07/22 06:48:55;;;;;;;;;;;23.10;72.90;;;;;;5025516;28;19921;-70
2023/07/22 06:51:20;;;;;;;;;;;23.60;72.70;;;;;;5015576;28;19924;-70
2023/07/22 06:53:46;;;;;;;;;;;24.10;72.70;;;;;;5032032;28;20377;-70
2023/07/22 06:56:11;;;;;;;;;;;24.60;72.20;;;;;;5035307;28;20385;-70
2023/07/22 06:58:37;;;;;;;;;;;25.10;71.90;;;;;;5032013;28;20335;-69
2023/07/22 07:01:02;;;;;;;;;;;25.50;71.10;;;;;;5034946;28;19916;-70
2023/07/22 07:03:28;;;;;;;;;;;25.80;70.20;;;;;;5035051;28;19917;-71
2023/07/22 07:05:57;;;;;;;;;;;26.10;69.50;;;;;;5035443;28;19913;-70
2023/07/22 07:08:23;;;;;;;;;;;26.10;68.50;;;;;;5033003;28;19921;-71
2023/07/22 07:10:48;;;;;;;;;;;26.00;67.80;;;;;;5034758;28;19913;-71
2023/07/22 07:13:14;;;;;;;;;;;25.90;68.20;;;;;;5034668;28;19923;-72
2023/07/22 07:15:40;;;;;;;;;;;26.00;68.90;;;;;;5034349;28;19925;-72
2023/07/22 07:18:05;;;;;;;;;;;26.10;69.60;;;;;;5034233;28;20012;-72
2023/07/22 07:20:30;;;;;;;;;;;26.40;70.60;;;;;;5014132;28;20318;-72
2023/07/22 07:22:56;;;;;;;;;;;26.90;72.40;;;;;;5025186;28;19917;-72
2023/07/22 07:25:21;;;;;;;;;;;27.30;70.00;;;;;;5034773;28;19913;-72
2023/07/22 07:27:47;;;;;;;;;;;27.40;70.00;;;;;;5035215;28;19917;-72
2023/07/22 07:30:13;;;;;;;;;;;27.40;70.20;;;;;;5034817;28;20361;-72
2023/07/22 07:32:38;;;;;;;;;;;27.50;70.90;;;;;;5034864;28;19972;-71
2023/07/22 07:35:04;;;;;;;;;;;27.50;71.50;;;;;;5034659;28;19913;-71
2023/07/22 07:37:31;;;;;;;;;;;27.80;71.70;;;;;;5035207;28;20490;-71
2023/07/22 07:39:59;;;;;;;;;;;27.90;70.40;;;;;;5034630;28;19971;-71
2023/07/22 07:42:27;;;;;;;;;;;28.00;70.80;;;;;;5034624;28;20349;-71
2023/07/22 07:44:53;;;;;;;;;;;28.30;72.70;;;;;;5034654;28;19947;-71
2023/07/22 07:47:18;;;;;;;;;;;28.90;72.90;;;;;;5034509;28;20360;-71
2023/07/22 07:49:44;;;;;;;;;;;29.30;70.20;;;;;;5034513;28;19909;-71
2023/07/22 07:52:10;;;;;;;;;;;29.30;68.70;;;;;;5033219;28;19925;-71
2023/07/22 07:54:35;;;;;;;;;;;29.30;69.20;;;;;;5034498;28;19909;-71
2023/07/22 07:57:00;;;;;;;;;;;29.40;68.60;;;;;;5034466;28;19917;-71
2023/07/22 07:59:26;;;;;;;;;;;29.80;68.40;;;;;;5015733;28;20642;-71
2023/07/22 08:01:51;;;;;;;;;;;30.10;65.60;;;;;;5007182;28;19913;-73
2023/07/22 08:04:17;;;;;;;;;;;30.20;67.30;;;;;;5025446;28;20378;-73
2023/07/22 08:06:43;;;;;;;;;;;30.30;68.50;;;;;;5030234;28;20424;-73
2023/07/22 08:09:10;;;;;;;;;;;30.70;69.70;;;;;;5034333;28;19917;-74
2023/07/22 08:11:36;;;;;;;;;;;30.90;67.30;;;;;;5027120;28;19916;-73
2023/07/22 08:14:02;;;;;;;;;;;30.90;65.70;;;;;;5030003;28;19948;-72
2023/07/22 08:16:28;;;;;;;;;;;30.80;64.80;;;;;;5011413;28;19957;-75
2023/07/22 08:18:53;;;;;;;;;;;30.80;63.10;;;;;;5031152;28;20283;-74
2023/07/22 08:21:19;;;;;;;;;;;30.80;66.00;;;;;;5033803;28;19909;-74
2023/07/22 08:23:46;;;;;;;;;;;30.90;66.70;;;;;;5031336;28;20284;-74
2023/07/22 08:26:12;;;;;;;;;;;31.00;65.80;;;;;;5027256;28;19913;-74
2023/07/22 08:28:37;;;;;;;;;;;31.00;66.30;;;;;;5014276;28;19980;-74
2023/07/22 08:31:03;;;;;;;;;;;30.90;65.30;;;;;;5024709;28;19948;-73
2023/07/22 08:33:29;;;;;;;;;;;30.70;63.90;;;;;;5024808;28;20328;-74
2023/07/22 08:35:55;;;;;;;;;;;30.50;64.80;;;;;;5016396;28;19921;-73
2023/07/22 08:38:21;;;;;;;;;;;30.40;64.80;;;;;;5013764;28;19922;-73
2023/07/22 08:40:48;;;;;;;;;;;30.40;66.10;;;;;;5014251;28;20353;-73
2023/07/22 08:43:14;;;;;;;;;;;30.50;66.80;;;;;;5027440;28;19963;-75
2023/07/22 08:45:40;;;;;;;;;;;30.60;65.20;;;;;;5033341;28;19913;-75
2023/07/22 08:48:09;;;;;;;;;;;30.50;64.90;;;;;;5033706;28;20060;-75
2023/07/22 08:50:53;;;;;;;;;;;30.50;63.90;;;;;;5033420;28;20364;-75
2023/07/22 08:53:19;;;;;;;;;;;30.70;66.00;;;;;;5033146;28;20051;-75
2023/07/22 08:55:45;;;;;;;;;;;30.90;65.60;;;;;;5014888;28;20011;-76
2023/07/22 08:58:11;;;;;;;;;;;31.10;61.70;;;;;;5016927;28;19932;-75
2023/07/22 09:00:37;;;;;;;;;;;31.20;58.30;;;;;;5021940;28;19909;-75
2023/07/22 09:03:04;;;;;;;;;;;31.30;61.20;;;;;;5032043;28;19917;-76
2023/07/22 09:05:31;;;;;;;;;;;31.50;60.00;;;;;;5031684;28;19967;-76
2023/07/22 09:07:57;;;;;;;;;;;31.90;61.00;;;;;;5033390;28;20269;-76
2023/07/22 09:10:24;;;;;;;;;;;32.30;60.20;;;;;;5030455;28;19913;-75
2023/07/22 09:12:50;;;;;;;;;;;32.60;55.20;;;;;;5033458;28;19917;-75
2023/07/22 09:15:16;;;;;;;;;;;32.70;55.10;;;;;;5032766;28;19963;-76
2023/07/22 09:17:42;;;;;;;;;;;32.70;51.90;;;;;;5020974;28;20578;-75
2023/07/22 09:20:08;;;;;;;;;;;32.70;50.20;;;;;;5013035;28;19909;-76
2023/07/22 09:22:34;;;;;;;;;;;32.60;52.70;;;;;;5025355;28;20027;-75
2023/07/22 09:25:13;;;;;;;;;;;32.60;52.90;;;;;;5015312;28;19914;-76
2023/07/22 09:27:38;;;;;;;;;;;32.60;49.40;;;;;;5013287;28;19917;-75
2023/07/22 09:30:19;;;;;;;;;;;32.50;51.70;;;;;;4995296;28;19945;-76
2023/07/22 09:32:44;;;;;;;;;;;32.60;48.20;;;;;;5013022;28;20377;-76
2023/07/22 09:35:10;;;;;;;;;;;32.50;45.40;;;;;;5012681;28;19918;-76
2023/07/22 09:37:37;;;;;;;;;;;32.70;46.20;;;;;;5025418;28;20370;-76
2023/07/22 09:40:13;;;;;;;;;;;33.00;47.50;;;;;;5032528;28;19967;-75
2023/07/22 09:42:38;;;;;;;;;;;33.20;45.20;;;;;;5032569;28;19925;-75
2023/07/22 09:45:04;;;;;;;;;;;33.30;43.40;;;;;;5032311;28;19909;-76
2023/07/22 09:47:39;;;;;;;;;;;33.50;40.80;;;;;;5028780;28;20004;-77
2023/07/22 09:50:04;;;;;;;;;;;33.50;40.30;;;;;;5028822;28;19913;-75
2023/07/22 09:52:30;;;;;;;;;;;33.60;41.50;;;;;;5031531;28;19925;-75
2023/07/22 09:54:58;;;;;;;;;;;33.50;40.00;;;;;;5031292;28;19990;-74
2023/07/22 09:57:24;;;;;;;;;;;33.30;38.90;;;;;;5029650;28;20684;-75
2023/07/22 09:59:50;;;;;;;;;;;33.10;40.50;;;;;;5027674;28;19945;-75
2023/07/22 10:02:17;;;;;;;;;;;33.20;42.10;;;;;;5012144;28;19917;-69
2023/07/22 10:04:43;;;;;;;;;;;33.30;41.00;;;;;;5012968;28;19917;-69
2023/07/22 10:07:10;;;;;;;;;;;33.20;38.80;;;;;;5030621;28;19909;-69
2023/07/22 10:09:37;;;;;;;;;;;33.20;39.10;;;;;;5031626;28;19939;-68
2023/07/22 10:12:03;;;;;;;;;;;33.30;40.80;;;;;;5032451;28;20020;-69
2023/07/22 10:14:29;;;;;;;;;;;33.40;40.90;;;;;;5047016;28;20384;-70
2023/07/22 10:16:54;;;;;;;;;;;33.60;40.40;;;;;;5052012;28;19917;-69
2023/07/22 10:19:21;;;;;;;;;;;33.70;37.30;;;;;;5051823;28;20378;-68
2023/07/22 10:21:47;;;;;;;;;;;33.90;37.30;;;;;;5051654;28;19909;-68
2023/07/22 10:24:13;;;;;;;;;;;33.90;38.00;;;;;;5051601;28;19917;-68
2023/07/22 10:26:39;;;;;;;;;;;34.20;36.80;;;;;;5051740;28;20363;-69
2023/07/22 10:29:05;;;;;;;;;;;34.50;35.80;;;;;;5051493;28;20360;-69
2023/07/22 10:31:31;;;;;;;;;;;34.70;36.50;;;;;;5051709;28;19920;-70
2023/07/22 10:33:57;;;;;;;;;;;35.00;34.20;;;;;;5051830;28;19924;-68
2023/07/22 10:36:28;;;;;;;;;;;35.10;33.80;;;;;;5051476;28;20316;-68
2023/07/22 10:38:57;;;;;;;;;;;35.20;32.20;;;;;;5051630;28;19916;-69
2023/07/22 10:41:23;;;;;;;;;;;35.30;34.50;;;;;;5051669;28;20391;-69
2023/07/22 10:43:55;;;;;;;;;;;35.80;32.90;;;;;;5051341;28;19955;-70
2023/07/22 10:46:34;;;;;;;;;;;36.10;33.70;;;;;;5033701;28;20343;-69
2023/07/22 10:49:13;;;;;;;;;;;36.40;30.40;;;;;;5051719;28;19917;-67
2023/07/22 10:51:38;;;;;;;;;;;36.70;31.40;;;;;;5051369;28;20365;-68
2023/07/22 10:54:10;;;;;;;;;;;37.30;30.10;;;;;;5051462;28;19928;-69
2023/07/22 10:56:35;;;;;;;;;;;37.50;29.30;;;;;;5051448;28;20023;-69
2023/07/22 10:59:02;;;;;;;;;;;37.60;28.50;;;;;;5033916;28;19936;-68
2023/07/22 11:01:28;;;;;;;;;;;37.40;27.60;;;;;;5051443;28;20368;-69
2023/07/22 11:04:05;;;;;;;;;;;36.90;27.80;;;;;;5051460;28;19943;-69
2023/07/22 11:06:31;;;;;;;;;;;36.40;27.50;;;;;;5051367;28;20353;-70
2023/07/22 11:08:56;;;;;;;;;;;36.00;28.50;;;;;;5051508;28;19964;-69
2023/07/22 11:11:34;;;;;;;;;;;35.70;28.30;;;;;;5033551;28;19920;-69
2023/07/22 11:14:12;;;;;;;;;;;35.20;28.90;;;;;;5051277;28;20300;-68
2023/07/22 11:16:38;;;;;;;;;;;34.90;28.70;;;;;;5037288;28;19939;-69
2023/07/22 11:19:03;;;;;;;;;;;34.80;29.10;;;;;;5031277;28;19917;-69
2023/07/22 11:21:29;;;;;;;;;;;35.00;29.70;;;;;;5031383;28;20280;-68
2023/07/22 11:23:54;;;;;;;;;;;35.00;29.20;;;;;;5031070;28;20323;-68
2023/07/22 11:26:20;;;;;;;;;;;34.80;28.50;;;;;;5033832;28;20331;-68
2023/07/22 11:28:46;;;;;;;;;;;34.60;27.90;;;;;;5034357;28;20009;-68
2023/07/22 11:31:11;;;;;;;;;;;34.20;28.20;;;;;;5035062;28;19913;-69
2023/07/22 11:33:38;;;;;;;;;;;34.00;28.50;;;;;;5034814;28;19963;-69
2023/07/22 11:36:03;;;;;;;;;;;34.00;28.80;;;;;;5034594;28;19920;-69
2023/07/22 11:38:29;;;;;;;;;;;34.10;28.60;;;;;;5034737;28;19909;-68
2023/07/22 11:40:54;;;;;;;;;;;34.30;27.60;;;;;;5034933;28;19921;-68
2023/07/22 11:43:20;;;;;;;;;;;34.40;27.80;;;;;;5034603;28;19917;-68
2023/07/22 11:45:46;;;;;;;;;;;34.60;27.70;;;;;;5035143;28;20254;-70
2023/07/22 11:48:12;;;;;;;;;;;34.70;27.10;;;;;;5034705;28;20448;-69
2023/07/22 11:50:38;;;;;;;;;;;34.70;26.40;;;;;;5034427;28;20003;-70
2023/07/22 11:53:03;;;;;;;;;;;34.60;26.80;;;;;;5034264;28;19999;-68
2023/07/22 11:55:28;;;;;;;;;;;34.60;27.10;;;;;;5034575;28;19928;-68
2023/07/22 11:57:54;;;;;;;;;;;34.70;27.40;;;;;;5016657;28;19913;-68
2023/07/22 12:00:20;;;;;;;;;;;35.00;27.60;;;;;;5034536;28;20012;-69
2023/07/22 12:02:46;;;;;;;;;;;35.20;27.10;;;;;;5034481;28;19912;-69
2023/07/22 12:05:19;;;;;;;;;;;35.10;26.60;;;;;;5034541;28;19917;-69
2023/07/22 12:07:45;;;;;;;;;;;35.00;26.80;;;;;;5034450;28;19909;-69
2023/07/22 12:10:11;;;;;;;;;;;35.10;26.50;;;;;;5034545;28;19943;-69
2023/07/22 12:12:38;;;;;;;;;;;35.20;26.90;;;;;;5016352;28;20357;-69
2023/07/22 12:15:04;;;;;;;;;;;35.40;26.60;;;;;;5034256;28;19921;-69
2023/07/22 12:17:29;;;;;;;;;;;35.50;25.00;;;;;;5034117;28;19909;-69
2023/07/22 12:19:55;;;;;;;;;;;35.40;24.40;;;;;;5034246;28;19940;-69
2023/07/22 12:22:20;;;;;;;;;;;35.10;24.00;;;;;;5016529;28;19913;-69
2023/07/22 12:24:49;;;;;;;;;;;34.90;24.00;;;;;;5033967;28;19918;-69
2023/07/22 12:27:14;;;;;;;;;;;34.70;24.70;;;;;;5033920;28;19960;-69
2023/07/22 12:29:40;;;;;;;;;;;34.60;25.10;;;;;;5033914;28;19921;-69
2023/07/22 12:32:06;;;;;;;;;;;34.70;25.60;;;;;;5033823;28;19956;-69
2023/07/22 12:34:31;;;;;;;;;;;34.90;25.30;;;;;;5033864;28;19917;-69
2023/07/22 12:36:56;;;;;;;;;;;35.10;25.00;;;;;;5033349;28;20422;-69
2023/07/22 12:39:22;;;;;;;;;;;35.20;24.70;;;;;;5034073;28;19957;-69
2023/07/22 12:41:47;;;;;;;;;;;35.10;24.60;;;;;;5015729;28;19913;-70
2023/07/22 12:44:13;;;;;;;;;;;35.10;24.30;;;;;;5031854;28;19917;-69
2023/07/22 12:46:38;;;;;;;;;;;35.20;24.90;;;;;;5030993;28;19921;-76
2023/07/22 12:49:05;;;;;;;;;;;35.40;24.90;;;;;;5025379;28;19917;-77
2023/07/22 12:51:31;;;;;;;;;;;35.50;24.50;;;;;;5030505;28;20019;-75
2023/07/22 12:53:56;;;;;;;;;;;35.60;24.30;;;;;;5031612;28;20060;-78
2023/07/22 12:56:22;;;;;;;;;;;35.70;24.10;;;;;;5026183;28;19932;-77
2023/07/22 12:58:47;;;;;;;;;;;35.80;23.40;;;;;;5017743;28;19936;-76
2023/07/22 13:01:13;;;;;;;;;;;35.80;24.10;;;;;;5031659;28;19936;-78
2023/07/22 13:03:38;;;;;;;;;;;35.80;23.80;;;;;;5031583;28;20658;-75
2023/07/22 13:06:04;;;;;;;;;;;35.70;23.80;;;;;;5027301;28;19921;-72
2023/07/22 13:08:30;;;;;;;;;;;35.50;23.90;;;;;;5003744;28;19913;-76
2023/07/22 13:10:55;;;;;;;;;;;35.40;23.50;;;;;;5025966;28;20385;-78
2023/07/22 13:13:20;;;;;;;;;;;35.30;23.70;;;;;;5018584;28;20008;-77
2023/07/22 13:15:46;;;;;;;;;;;35.10;23.90;;;;;;5024210;28;19976;-76
2023/07/22 13:18:13;;;;;;;;;;;35.10;24.20;;;;;;5026408;28;19917;-77
2023/07/22 13:20:39;;;;;;;;;;;35.00;23.90;;;;;;5027859;28;19921;-77
2023/07/22 13:23:04;;;;;;;;;;;34.70;23.80;;;;;;5022153;28;20288;-77
2023/07/22 13:25:30;;;;;;;;;;;34.60;23.90;;;;;;5024603;28;20379;-79
2023/07/22 13:27:56;;;;;;;;;;;34.30;23.90;;;;;;5003571;28;20288;-78
2023/07/22 13:30:22;;;;;;;;;;;34.10;24.00;;;;;;5039134;28;19921;-77
2023/07/22 13:32:47;;;;;;;;;;;33.80;25.50;;;;;;5032860;28;19913;-76
2023/07/22 13:35:13;;;;;;;;;;;33.70;26.10;;;;;;5016058;28;19921;-76
2023/07/22 13:37:38;;;;;;;;;;;33.70;26.20;;;;;;5025260;28;20088;-76
2023/07/22 13:40:09;;;;;;;;;;;33.70;25.60;;;;;;5020082;28;19918;-76
2023/07/22 13:42:35;;;;;;;;;;;33.70;25.10;;;;;;5029327;28;20432;-75
2023/07/22 13:45:00;;;;;;;;;;;33.70;25.20;;;;;;5032347;28;20016;-77
2023/07/22 13:47:26;;;;;;;;;;;33.80;25.20;;;;;;5025623;28;20341;-78
2023/07/22 13:49:51;;;;;;;;;;;34.00;24.90;;;;;;5015679;28;19971;-77
2023/07/22 13:52:17;;;;;;;;;;;34.30;24.30;;;;;;5012419;28;19914;-78
2023/07/22 13:54:42;;;;;;;;;;;34.50;24.40;;;;;;5027395;28;20451;-76
2023/07/22 13:57:08;;;;;;;;;;;34.80;23.50;;;;;;5030989;28;20396;-77
2023/07/22 13:59:33;;;;;;;;;;;34.80;23.00;;;;;;5024613;28;19924;-78
2023/07/22 14:01:58;;;;;;;;;;;34.60;23.30;;;;;;5004746;28;19942;-76
2023/07/22 14:04:24;;;;;;;;;;;34.50;22.90;;;;;;5030789;28;20004;-76
2023/07/22 14:06:49;;;;;;;;;;;34.40;23.20;;;;;;5029970;28;20605;-79
2023/07/22 14:09:15;;;;;;;;;;;34.30;23.20;;;;;;5016667;28;20258;-73